Time;durP1;ratioP1;P1;durP2;ratioP2;P2;SDS_P1;SDS_P2;PMS_P1;PMS_P2;Temp;Humidity;BMP_temperature;BMP_pressure;BME280_temperature;BME280_humidity;BME280_pressure;Samples;Min_cycle;Max_cycle;Signal;HPM_P1;HPM_P2
2023/07/15 00:00:50;;;;;;;50.80;40.60;;;;;;;-128.00;-1.00;-1.00;98109;294;1003814;-34
2023/07/15 00:03:18;;;;;;;33.90;24.70;;;;;;;-128.00;-1.00;-1.00;97944;294;1002501;-34
2023/07/15 00:05:44;;;;;;;165.80;117.90;;;;;;;-128.00;-1.00;-1.00;97889;293;1003024;-35
2023/07/15 00:08:11;;;;;;;91.10;58.10;;;;;;;-128.00;-1.00;-1.00;97825;296;1003865;-35
2023/07/15 00:10:37;;;;;;;82.00;62.20;;;;;;;-128.00;-1.00;-1.00;98121;294;1003802;-34
2023/07/15 00:13:03;;;;;;;55.40;42.60;;;;;;;-128.00;-1.00;-1.00;98139;294;1005317;-30
2023/07/15 00:15:29;;;;;;;26.40;22.90;;;;;;;-128.00;-1.00;-1.00;97979;294;1005154;-37
2023/07/15 00:17:54;;;;;;;32.20;27.70;;;;;;;-128.00;-1.00;-1.00;97925;293;1003369;-30
2023/07/15 00:20:20;;;;;;;27.30;24.40;;;;;;;-128.00;-1.00;-1.00;98082;294;1003590;-30
2023/07/15 00:22:46;;;;;;;28.80;25.90;;;;;;;-128.00;-1.00;-1.00;97367;293;1004697;-35
2023/07/15 00:25:15;;;;;;;39.50;33.10;;;;;;;-128.00;-1.00;-1.00;97853;293;1003266;-35
2023/07/15 00:27:42;;;;;;;14.40;11.50;;;;;;;-128.00;-1.00;-1.00;98002;294;1003185;-30
2023/07/15 00:30:09;;;;;;;80.10;68.70;;;;;;;-128.00;-1.00;-1.00;98084;294;1003115;-30
2023/07/15 00:32:34;;;;;;;53.60;46.00;;;;;;;-128.00;-1.00;-1.00;97928;294;1003913;-30
2023/07/15 00:35:00;;;;;;;32.00;20.80;;;;;;;-128.00;-1.00;-1.00;97826;294;1003635;-30
2023/07/15 01:17:38;;;;;;;6.00;5.50;;;;;;;-99.46;16.11;19849.83;98306;297;1544156;-35
2023/07/15 01:20:06;;;;;;;11.20;10.20;;;;;;;-128.00;-1.00;-1.00;97427;298;1003102;-34
2023/07/15 01:22:34;;;;;;;3.80;2.50;;;;;;;-128.00;-1.00;-1.00;97409;298;1020848;-29
2023/07/15 01:25:00;;;;;;;6.80;6.10;;;;;;;-128.00;-1.00;-1.00;83992;296;3003496;-31
2023/07/15 01:27:28;;;;;;;9.20;4.90;;;;;;;-128.00;-1.00;-1.00;33419;296;7504397;-35
2023/07/15 01:29:54;;;;;;;6.40;4.50;;;;;;;-128.00;-1.00;-1.00;18870;296;7504511;-30
2023/07/15 01:32:21;;;;;;;5.30;4.60;;;;;;;-128.00;-1.00;-1.00;18863;296;7505274;-30
2023/07/15 01:34:47;;;;;;;4.90;4.10;;;;;;;-128.00;-1.00;-1.00;18854;296;7505313;-34
2023/07/15 01:37:13;;;;;;;13.00;4.10;;;;;;;-128.00;-1.00;-1.00;18885;296;7505141;-30
2023/07/15 01:39:39;;;;;;;4.70;4.00;;;;;;;-128.00;-1.00;-1.00;21579;296;7504031;-34
2023/07/15 01:42:05;;;;;;;3.90;3.40;;;;;;;-128.00;-1.00;-1.00;43741;297;7506115;-34
2023/07/15 01:44:31;;;;;;;4.60;3.80;;;;;;;-128.00;-1.00;-1.00;79976;296;7504743;-34
2023/07/15 01:46:59;;;;;;;5.10;3.90;;;;;;;-128.00;-1.00;-1.00;88858;296;3002500;-31
2023/07/15 01:49:25;;;;;;;13.60;4.90;;;;;;;-128.00;-1.00;-1.00;18872;321;7504465;-35
2023/07/15 01:51:51;;;;;;;13.60;4.90;;;;;;;-128.00;-1.00;-1.00;18866;296;7505148;-35
2023/07/15 01:54:17;;;;;;;5.70;4.30;;;;;;;-128.00;-1.00;-1.00;18860;296;7504333;-34
2023/07/15 01:56:43;;;;;;;6.00;5.20;;;;;;;-128.00;-1.00;-1.00;18872;296;7504558;-35
2023/07/15 01:59:10;;;;;;;9.60;4.70;;;;;;;-128.00;-1.00;-1.00;18878;296;7505181;-35
2023/07/15 02:01:36;;;;;;;4.40;3.90;;;;;;;-128.00;-1.00;-1.00;18456;341;7504391;-31
2023/07/15 02:04:02;;;;;;;12.90;4.00;;;;;;;-128.00;-1.00;-1.00;18872;296;7505171;-31
2023/07/15 02:06:28;;;;;;;5.80;4.10;;;;;;;-128.00;-1.00;-1.00;18880;296;7505010;-32
2023/07/15 02:08:54;;;;;;;7.60;4.60;;;;;;;-128.00;-1.00;-1.00;18887;321;7504951;-32
2023/07/15 02:11:21;;;;;;;6.00;4.30;;;;;;;-128.00;-1.00;-1.00;18845;297;7504341;-31
2023/07/15 02:13:47;;;;;;;6.80;4.20;;;;;;;-128.00;-1.00;-1.00;18863;296;7504723;-34
2023/07/15 02:16:13;;;;;;;6.20;4.20;;;;;;;-128.00;-1.00;-1.00;18868;296;7504542;-32
2023/07/15 02:18:40;;;;;;;15.70;4.80;;;;;;;-128.00;-1.00;-1.00;18872;285;7505305;-34
2023/07/15 02:21:06;;;;;;;10.00;4.60;;;;;;;-128.00;-1.00;-1.00;18874;285;7505453;-31
2023/07/15 02:23:33;;;;;;;6.90;3.40;;;;;;;-128.00;-1.00;-1.00;36338;296;7505064;-31
2023/07/15 02:26:01;;;;;;;3.80;3.30;;;;;;;-128.00;-1.00;-1.00;20008;289;7505248;-36
2023/07/15 02:28:27;;;;;;;8.00;4.30;;;;;;;-128.00;-1.00;-1.00;18902;289;7504753;-36
2023/07/15 02:30:54;;;;;;;5.70;4.10;;;;;;;-128.00;-1.00;-1.00;18455;296;7505514;-35
2023/07/15 02:33:20;;;;;;;5.70;4.30;;;;;;;-128.00;-1.00;-1.00;18470;289;7504339;-35
2023/07/15 02:35:46;;;;;;;7.10;5.40;;;;;;;-128.00;-1.00;-1.00;18482;296;7505008;-33
2023/07/15 02:38:12;;;;;;;9.50;4.50;;;;;;;-128.00;-1.00;-1.00;18870;297;7504588;-35
2023/07/15 02:40:38;;;;;;;8.00;4.60;;;;;;;-128.00;-1.00;-1.00;18487;296;7504633;-35
2023/07/15 02:43:04;;;;;;;6.40;5.70;;;;;;;-128.00;-1.00;-1.00;18870;298;7504803;-34
2023/07/15 02:45:31;;;;;;;8.20;5.60;;;;;;;-128.00;-1.00;-1.00;18874;289;7504612;-32
2023/07/15 02:47:57;;;;;;;10.20;5.10;;;;;;;-128.00;-1.00;-1.00;18861;289;7504434;-31
2023/07/15 02:50:23;;;;;;;12.20;4.80;;;;;;;-128.00;-1.00;-1.00;18863;348;7505004;-35
2023/07/15 02:52:49;;;;;;;6.40;4.80;;;;;;;-128.00;-1.00;-1.00;18865;338;7504477;-34
2023/07/15 02:55:16;;;;;;;8.30;5.10;;;;;;;-128.00;-1.00;-1.00;18892;297;7504390;-31
2023/07/15 02:57:42;;;;;;;5.80;5.20;;;;;;;-128.00;-1.00;-1.00;19600;296;7505190;-31
2023/07/15 03:00:15;;;;;;;8.00;5.30;;;;;;;-128.00;-1.00;-1.00;19551;296;7504376;-31
2023/07/15 03:02:51;;;;;;;12.70;5.10;;;;;;;-128.00;-1.00;-1.00;33141;289;7504110;-32
2023/07/15 03:05:17;;;;;;;8.30;5.10;;;;;;;-128.00;-1.00;-1.00;18488;285;7504545;-35
2023/07/15 03:07:44;;;;;;;5.70;4.50;;;;;;;-128.00;-1.00;-1.00;69408;285;7504023;-36
2023/07/15 03:10:14;;;;;;;11.40;5.50;;;;;;;-128.00;-1.00;-1.00;97804;296;1003903;-34
2023/07/15 03:12:42;;;;;;;5.60;4.80;;;;;;;-128.00;-1.00;-1.00;94996;296;1747499;-34
2023/07/15 03:15:09;;;;;;;7.20;4.30;;;;;;;-128.00;-1.00;-1.00;97623;285;1603907;-34
2023/07/15 03:17:36;;;;;;;11.50;5.90;;;;;;;-128.00;-1.00;-1.00;68579;285;7503798;-30
2023/07/15 03:20:07;;;;;;;12.00;4.40;;;;;;;-128.00;-1.00;-1.00;64026;289;7503977;-34
2023/07/15 03:22:32;;;;;;;5.40;4.40;;;;;;;-128.00;-1.00;-1.00;97801;296;1005043;-29
2023/07/15 03:24:59;;;;;;;12.60;5.00;;;;;;;-128.00;-1.00;-1.00;79258;285;7054829;-30
2023/07/15 03:27:24;;;;;;;8.10;4.30;;;;;;;-128.00;-1.00;-1.00;64023;296;7503870;-35
2023/07/15 03:29:51;;;;;;;5.30;4.30;;;;;;;-128.00;-1.00;-1.00;97795;296;1003484;-32
2023/07/15 03:32:17;;;;;;;7.70;3.90;;;;;;;-128.00;-1.00;-1.00;86998;296;4984581;-33
2023/07/15 03:34:42;;;;;;;14.80;5.20;;;;;;;-128.00;-1.00;-1.00;72756;296;5253842;-35
2023/07/15 03:37:09;;;;;;;5.30;4.50;;;;;;;-128.00;-1.00;-1.00;97025;285;1003508;-31
2023/07/15 03:39:35;;;;;;;6.20;5.00;;;;;;;-128.00;-1.00;-1.00;97998;296;1003338;-34
2023/07/15 03:42:02;;;;;;;3.90;3.20;;;;;;;-128.00;-1.00;-1.00;97825;285;1003821;-30
2023/07/15 03:44:27;;;;;;;6.00;3.90;;;;;;;-128.00;-1.00;-1.00;97962;285;1002883;-34
2023/07/15 03:46:57;;;;;;;5.50;4.20;;;;;;;-128.00;-1.00;-1.00;97875;296;1003705;-30
2023/07/15 03:49:23;;;;;;;7.80;4.60;;;;;;;-128.00;-1.00;-1.00;97938;296;1012333;-31
2023/07/15 03:51:49;;;;;;;9.90;4.90;;;;;;;-128.00;-1.00;-1.00;97888;285;1023052;-34
2023/07/15 03:54:15;;;;;;;4.20;3.40;;;;;;;-128.00;-1.00;-1.00;90880;285;3860106;-36
2023/07/15 03:56:41;;;;;;;10.90;5.40;;;;;;;-128.00;-1.00;-1.00;51064;289;6074344;-35
2023/07/15 03:59:09;;;;;;;5.20;3.80;;;;;;;-128.00;-1.00;-1.00;40799;296;7503823;-36
2023/07/15 04:01:35;;;;;;;2.60;2.40;;;;;;;-128.00;-1.00;-1.00;84199;287;4503103;-31
2023/07/15 04:04:05;;;;;;;9.40;4.00;;;;;;;-128.00;-1.00;-1.00;27832;289;7504275;-32
2023/07/15 04:06:34;;;;;;;7.00;4.30;;;;;;;-128.00;-1.00;-1.00;18601;344;7504946;-32
2023/07/15 04:09:00;;;;;;;4.50;4.10;;;;;;;-128.00;-1.00;-1.00;18481;340;7506005;-36
2023/07/15 04:11:26;;;;;;;11.70;4.60;;;;;;;-128.00;-1.00;-1.00;18454;296;7504894;-36
2023/07/15 04:13:52;;;;;;;6.70;4.50;;;;;;;-128.00;-1.00;-1.00;18877;296;7504376;-36
2023/07/15 04:16:17;;;;;;;4.10;3.40;;;;;;;-128.00;-1.00;-1.00;40759;289;7504552;-35
2023/07/15 04:18:45;;;;;;;4.60;4.20;;;;;;;-128.00;-1.00;-1.00;18447;298;7504460;-35
2023/07/15 04:21:11;;;;;;;8.40;4.30;;;;;;;-128.00;-1.00;-1.00;18877;296;7505397;-31
2023/07/15 04:23:37;;;;;;;8.30;4.00;;;;;;;-128.00;-1.00;-1.00;18845;285;7504892;-36
2023/07/15 04:26:03;;;;;;;5.80;4.20;;;;;;;-128.00;-1.00;-1.00;18884;311;7504536;-36
2023/07/15 04:28:30;;;;;;;5.30;4.40;;;;;;;-128.00;-1.00;-1.00;18845;298;7504190;-32
2023/07/15 04:30:56;;;;;;;8.50;4.20;;;;;;;-128.00;-1.00;-1.00;18872;288;7504443;-36
2023/07/15 04:33:23;;;;;;;9.00;4.60;;;;;;;-128.00;-1.00;-1.00;18884;289;7504625;-32
2023/07/15 04:35:48;;;;;;;7.20;3.50;;;;;;;-128.00;-1.00;-1.00;18486;301;7505150;-32
2023/07/15 04:38:14;;;;;;;4.60;3.60;;;;;;;-128.00;-1.00;-1.00;19304;285;7504356;-37
2023/07/15 04:40:40;;;;;;;3.90;3.50;;;;;;;-128.00;-1.00;-1.00;18855;320;7504893;-31
2023/07/15 04:43:08;;;;;;;4.80;3.80;;;;;;;-128.00;-1.00;-1.00;58300;296;7504357;-33
2023/07/15 04:45:34;;;;;;;8.70;3.80;;;;;;;-128.00;-1.00;-1.00;18856;289;7505561;-37
2023/07/15 04:48:00;;;;;;;9.30;4.20;;;;;;;-128.00;-1.00;-1.00;18876;296;7505146;-33
2023/07/15 04:50:27;;;;;;;5.60;4.20;;;;;;;-128.00;-1.00;-1.00;19565;297;7504695;-37
2023/07/15 04:52:54;;;;;;;5.20;4.30;;;;;;;-128.00;-1.00;-1.00;18884;296;7504371;-32
2023/07/15 04:55:21;;;;;;;6.50;3.40;;;;;;;-128.00;-1.00;-1.00;18479;296;7506897;-37
2023/07/15 04:57:48;;;;;;;6.60;3.80;;;;;;;-128.00;-1.00;-1.00;30687;348;7504650;-37
2023/07/15 05:00:16;;;;;;;5.70;3.30;;;;;;;-128.00;-1.00;-1.00;22387;296;7504273;-36
2023/07/15 05:02:42;;;;;;;5.70;3.80;;;;;;;-128.00;-1.00;-1.00;18896;324;7504260;-35
2023/07/15 05:05:09;;;;;;;5.50;3.40;;;;;;;-128.00;-1.00;-1.00;18885;285;7504393;-36
2023/07/15 05:07:35;;;;;;;3.80;3.20;;;;;;;-128.00;-1.00;-1.00;18465;296;7504494;-32
2023/07/15 05:10:01;;;;;;;4.20;3.80;;;;;;;-128.00;-1.00;-1.00;18837;298;7505049;-36
2023/07/15 05:12:27;;;;;;;4.40;3.30;;;;;;;-128.00;-1.00;-1.00;18871;298;7504241;-32
2023/07/15 05:14:54;;;;;;;8.60;3.60;;;;;;;-128.00;-1.00;-1.00;18862;298;7505435;-32
2023/07/15 05:17:19;;;;;;;5.10;3.50;;;;;;;-128.00;-1.00;-1.00;51774;296;7504520;-34
2023/07/15 05:19:46;;;;;;;5.10;3.50;;;;;;;-128.00;-1.00;-1.00;70602;296;7505730;-37
2023/07/15 05:22:13;;;;;;;5.60;3.90;;;;;;;-128.00;-1.00;-1.00;26523;296;7504662;-32
2023/07/15 05:24:39;;;;;;;6.10;3.20;;;;;;;-128.00;-1.00;-1.00;18871;296;7504321;-32
2023/07/15 05:27:05;;;;;;;2.30;1.80;;;;;;;-128.00;-1.00;-1.00;46810;319;7503795;-32
2023/07/15 05:29:32;;;;;;;9.50;2.90;;;;;;;-128.00;-1.00;-1.00;46130;298;7504497;-31
2023/07/15 05:31:58;;;;;;;4.50;2.30;;;;;;;-128.00;-1.00;-1.00;72154;297;4503209;-32
2023/07/15 05:34:26;;;;;;;4.90;2.60;;;;;;;-128.00;-1.00;-1.00;97184;285;3002979;-36
2023/07/15 05:36:53;;;;;;;4.90;2.50;;;;;;;-128.00;-1.00;-1.00;20890;289;7504407;-33
2023/07/15 05:39:19;;;;;;;2.80;2.40;;;;;;;-128.00;-1.00;-1.00;80531;296;7504094;-36
2023/07/15 05:41:45;;;;;;;2.00;1.80;;;;;;;-128.00;-1.00;-1.00;84320;285;7504562;-31
2023/07/15 05:44:10;;;;;;;2.50;1.60;;;;;;;-128.00;-1.00;-1.00;97799;296;1002796;-36
2023/07/15 05:46:37;;;;;;;5.40;2.50;;;;;;;-128.00;-1.00;-1.00;97913;296;1004660;-34
2023/07/15 05:49:06;;;;;;;2.80;1.80;;;;;;;-128.00;-1.00;-1.00;97907;285;1003660;-31
2023/07/15 05:51:32;;;;;;;2.50;2.20;;;;;;;-128.00;-1.00;-1.00;97876;296;1002779;-31
2023/07/15 05:53:58;;;;;;;2.90;2.10;;;;;;;-128.00;-1.00;-1.00;97940;285;1004982;-33
2023/07/15 05:56:23;;;;;;;5.70;1.90;;;;;;;-128.00;-1.00;-1.00;97894;285;1004053;-33
2023/07/15 05:58:50;;;;;;;5.90;1.90;;;;;;;-128.00;-1.00;-1.00;97780;296;1003115;-32
2023/07/15 06:01:16;;;;;;;6.90;1.80;;;;;;;-128.00;-1.00;-1.00;97811;297;1003084;-33
2023/07/15 06:03:42;;;;;;;3.00;1.70;;;;;;;-128.00;-1.00;-1.00;97830;296;1002904;-35
2023/07/15 06:06:07;;;;;;;3.60;2.00;;;;;;;-128.00;-1.00;-1.00;97893;296;1004125;-37
2023/07/15 06:08:34;;;;;;;2.30;1.50;;;;;;;-128.00;-1.00;-1.00;97785;298;1003033;-35
2023/07/15 06:10:59;;;;;;;1.60;1.30;;;;;;;-128.00;-1.00;-1.00;97885;298;1003048;-35
2023/07/15 06:13:25;;;;;;;2.80;1.50;;;;;;;-128.00;-1.00;-1.00;97744;298;1004435;-37
2023/07/15 06:15:51;;;;;;;3.30;1.40;;;;;;;-128.00;-1.00;-1.00;97806;285;1002748;-30
2023/07/15 06:18:17;;;;;;;5.10;1.60;;;;;;;-128.00;-1.00;-1.00;97972;285;1003146;-35
2023/07/15 06:20:43;;;;;;;1.40;1.00;;;;;;;-128.00;-1.00;-1.00;97791;285;1004555;-36
2023/07/15 06:23:08;;;;;;;4.60;1.20;;;;;;;-128.00;-1.00;-1.00;97825;285;1003613;-33
2023/07/15 06:25:39;;;;;;;3.90;1.90;;;;;;;-128.00;-1.00;-1.00;97847;296;1004297;-36
2023/07/15 06:28:05;;;;;;;4.10;1.10;;;;;;;-128.00;-1.00;-1.00;97813;296;1002571;-30
2023/07/15 06:30:30;;;;;;;5.80;1.70;;;;;;;-128.00;-1.00;-1.00;97787;285;1003378;-33
2023/07/15 06:32:56;;;;;;;1.40;0.80;;;;;;;-128.00;-1.00;-1.00;97731;298;1003428;-36
2023/07/15 06:35:22;;;;;;;1.50;1.20;;;;;;;-128.00;-1.00;-1.00;97970;285;1004100;-35
2023/07/15 06:37:48;;;;;;;2.50;1.60;;;;;;;-128.00;-1.00;-1.00;97831;285;1003567;-30
2023/07/15 06:40:20;;;;;;;2.20;1.80;;;;;;;-128.00;-1.00;-1.00;97757;296;1004163;-38
2023/07/15 06:42:46;;;;;;;4.80;1.60;;;;;;;-128.00;-1.00;-1.00;97909;285;1003830;-32
2023/07/15 06:45:12;;;;;;;1.90;1.30;;;;;;;-128.00;-1.00;-1.00;97810;285;1004672;-32
2023/07/15 06:47:38;;;;;;;1.90;1.30;;;;;;;-128.00;-1.00;-1.00;97905;285;1004415;-31
2023/07/15 06:50:04;;;;;;;1.90;1.50;;;;;;;-128.00;-1.00;-1.00;97881;296;1003060;-32
2023/07/15 06:52:30;;;;;;;1.80;1.50;;;;;;;-128.00;-1.00;-1.00;97830;285;1003266;-33
2023/07/15 06:54:56;;;;;;;2.20;1.50;;;;;;;-128.00;-1.00;-1.00;97819;298;1003149;-31
2023/07/15 06:57:21;;;;;;;1.80;1.10;;;;;;;-128.00;-1.00;-1.00;97910;285;1004075;-33
2023/07/15 06:59:47;;;;;;;3.50;1.30;;;;;;;-128.00;-1.00;-1.00;97808;296;1003867;-36
2023/07/15 07:02:13;;;;;;;3.50;1.00;;;;;;;-128.00;-1.00;-1.00;97769;285;1004067;-36
2023/07/15 07:04:39;;;;;;;3.90;1.50;;;;;;;-128.00;-1.00;-1.00;97847;285;1003000;-31
2023/07/15 07:07:05;;;;;;;3.30;2.00;;;;;;;-128.00;-1.00;-1.00;97826;285;1002881;-38
2023/07/15 07:09:31;;;;;;;10.20;1.40;;;;;;;-128.00;-1.00;-1.00;97758;286;1003046;-36
2023/07/15 07:11:56;;;;;;;2.10;1.20;;;;;;;-128.00;-1.00;-1.00;97905;285;1003430;-32
2023/07/15 07:14:22;;;;;;;2.10;1.60;;;;;;;-128.00;-1.00;-1.00;97855;285;1003233;-37
2023/07/15 07:16:47;;;;;;;3.40;1.50;;;;;;;-128.00;-1.00;-1.00;97849;285;1003039;-35
2023/07/15 07:19:13;;;;;;;1.40;1.10;;;;;;;-128.00;-1.00;-1.00;97867;285;1003109;-40
2023/07/15 07:21:39;;;;;;;2.30;1.40;;;;;;;-128.00;-1.00;-1.00;97820;296;1004434;-35
2023/07/15 07:24:05;;;;;;;1.90;1.30;;;;;;;-128.00;-1.00;-1.00;97951;285;1003756;-35
2023/07/15 07:26:31;;;;;;;2.30;1.30;;;;;;;-128.00;-1.00;-1.00;97834;285;1003133;-37
2023/07/15 07:28:56;;;;;;;2.10;1.70;;;;;;;-128.00;-1.00;-1.00;97958;285;1003885;-32
2023/07/15 07:31:22;;;;;;;1.70;1.30;;;;;;;-128.00;-1.00;-1.00;97892;297;1003045;-35
2023/07/15 07:33:48;;;;;;;3.60;1.50;;;;;;;-128.00;-1.00;-1.00;97831;285;1002549;-35
2023/07/15 07:36:13;;;;;;;1.40;1.20;;;;;;;-128.00;-1.00;-1.00;97757;296;1004514;-35
2023/07/15 07:38:39;;;;;;;2.70;1.10;;;;;;;-128.00;-1.00;-1.00;97788;298;1002475;-35
2023/07/15 07:41:06;;;;;;;13.20;2.00;;;;;;;-128.00;-1.00;-1.00;97820;285;1004068;-32
2023/07/15 07:43:33;;;;;;;2.40;1.30;;;;;;;-128.00;-1.00;-1.00;97929;296;1003162;-37
2023/07/15 07:46:00;;;;;;;2.60;1.80;;;;;;;-128.00;-1.00;-1.00;97834;285;1003164;-38
2023/07/15 07:48:27;;;;;;;2.30;1.00;;;;;;;-128.00;-1.00;-1.00;97911;296;1004721;-35
2023/07/15 07:50:54;;;;;;;2.20;1.30;;;;;;;-128.00;-1.00;-1.00;97790;285;1003963;-35
2023/07/15 07:53:19;;;;;;;2.20;1.00;;;;;;;-128.00;-1.00;-1.00;97869;285;1004434;-33
2023/07/15 07:55:45;;;;;;;17.40;1.10;;;;;;;-128.00;-1.00;-1.00;66989;285;7504249;-36
2023/07/15 07:58:11;;;;;;;3.60;1.90;;;;;;;-128.00;-1.00;-1.00;18471;296;7504629;-33
2023/07/15 08:00:37;;;;;;;1.30;1.20;;;;;;;-128.00;-1.00;-1.00;18586;319;7504611;-36
2023/07/15 08:03:02;;;;;;;3.20;1.90;;;;;;;-128.00;-1.00;-1.00;18494;296;7506180;-33
2023/07/15 08:05:29;;;;;;;12.00;1.90;;;;;;;-128.00;-1.00;-1.00;21678;288;7505190;-36
2023/07/15 08:07:57;;;;;;;4.30;1.10;;;;;;;-128.00;-1.00;-1.00;18903;285;7504802;-34
2023/07/15 08:10:23;;;;;;;3.80;1.20;;;;;;;-128.00;-1.00;-1.00;18445;298;7505737;-36
2023/07/15 08:12:48;;;;;;;8.50;1.30;;;;;;;-128.00;-1.00;-1.00;18479;289;7505550;-32
2023/07/15 08:15:15;;;;;;;4.10;1.50;;;;;;;-128.00;-1.00;-1.00;18854;296;7504254;-32
2023/07/15 08:17:41;;;;;;;1.80;1.20;;;;;;;-128.00;-1.00;-1.00;18862;285;7503923;-32
2023/07/15 08:20:11;;;;;;;7.20;0.90;;;;;;;-128.00;-1.00;-1.00;18834;297;7504622;-36
2023/07/15 08:22:37;;;;;;;1.20;1.00;;;;;;;-128.00;-1.00;-1.00;18475;344;7504422;-32
2023/07/15 08:25:03;;;;;;;2.00;1.30;;;;;;;-128.00;-1.00;-1.00;18477;298;7505193;-36
2023/07/15 08:27:29;;;;;;;1.10;0.90;;;;;;;-128.00;-1.00;-1.00;70044;296;7504361;-36
2023/07/15 08:29:54;;;;;;;3.10;1.50;;;;;;;-128.00;-1.00;-1.00;97868;285;1004531;-36
2023/07/15 08:32:20;;;;;;;3.40;1.10;;;;;;;-128.00;-1.00;-1.00;97810;285;1004582;-35
2023/07/15 08:35:04;;;;;;;1.60;1.30;;;;;;;-128.00;-1.00;-1.00;97779;296;1003215;-37
2023/07/15 08:37:30;;;;;;;1.30;1.20;;;;;;;-128.00;-1.00;-1.00;97961;296;1003350;-35
2023/07/15 08:39:55;;;;;;;5.10;1.40;;;;;;;-128.00;-1.00;-1.00;97972;296;1004308;-35
2023/07/15 08:42:22;;;;;;;1.90;1.30;;;;;;;-128.00;-1.00;-1.00;97825;285;1003301;-31
2023/07/15 08:44:48;;;;;;;4.50;1.60;;;;;;;-128.00;-1.00;-1.00;97818;285;1004712;-35
2023/07/15 08:47:22;;;;;;;5.90;1.20;;;;;;;-128.00;-1.00;-1.00;97963;296;1003374;-36
2023/07/15 08:49:49;;;;;;;1.10;1.00;;;;;;;-128.00;-1.00;-1.00;98011;289;1004680;-35
2023/07/15 08:52:19;;;;;;;1.70;1.10;;;;;;;-128.00;-1.00;-1.00;98077;296;1003366;-31
2023/07/15 08:54:48;;;;;;;2.30;1.10;;;;;;;-128.00;-1.00;-1.00;97856;296;1004100;-35
2023/07/15 08:57:16;;;;;;;3.00;1.10;;;;;;;-128.00;-1.00;-1.00;97716;296;1003260;-35
2023/07/15 08:59:41;;;;;;;1.90;1.00;;;;;;;-128.00;-1.00;-1.00;97857;296;1002988;-35
2023/07/15 09:02:07;;;;;;;3.60;1.40;;;;;;;-128.00;-1.00;-1.00;97776;297;1004774;-32
2023/07/15 09:04:33;;;;;;;6.00;1.30;;;;;;;-128.00;-1.00;-1.00;97838;285;1004727;-34
2023/07/15 09:06:59;;;;;;;7.10;1.40;;;;;;;-128.00;-1.00;-1.00;97829;285;1003563;-31
2023/07/15 09:09:38;;;;;;;2.00;1.20;;;;;;;-128.00;-1.00;-1.00;97933;296;1004321;-31
2023/07/15 09:12:09;;;;;;;1.80;1.00;;;;;;;-128.00;-1.00;-1.00;97906;285;1002402;-32
2023/07/15 09:14:43;;;;;;;3.70;0.70;;;;;;;-128.00;-1.00;-1.00;97986;296;1002584;-31
2023/07/15 09:17:16;;;;;;;2.80;1.70;;;;;;;-128.00;-1.00;-1.00;97871;296;1004589;-35
2023/07/15 09:19:43;;;;;;;2.80;1.50;;;;;;;-128.00;-1.00;-1.00;97546;296;1004391;-33
2023/07/15 09:22:09;;;;;;;3.40;1.80;;;;;;;-128.00;-1.00;-1.00;97771;287;1004803;-37
2023/07/15 09:24:37;;;;;;;5.40;1.70;;;;;;;-128.00;-1.00;-1.00;97883;289;1002777;-40
2023/07/15 09:27:03;;;;;;;4.40;1.90;;;;;;;-128.00;-1.00;-1.00;97943;285;1004286;-35
2023/07/15 09:29:29;;;;;;;2.20;1.30;;;;;;;-128.00;-1.00;-1.00;97797;285;1004105;-37
2023/07/15 09:31:55;;;;;;;8.70;1.60;;;;;;;-128.00;-1.00;-1.00;97861;285;1003583;-35
2023/07/15 09:34:22;;;;;;;4.00;1.00;;;;;;;-128.00;-1.00;-1.00;98050;296;1004117;-35
2023/07/15 09:36:48;;;;;;;4.80;1.50;;;;;;;-128.00;-1.00;-1.00;97846;285;1002945;-36
2023/07/15 09:39:17;;;;;;;2.90;1.50;;;;;;;-128.00;-1.00;-1.00;97829;285;1003757;-35
2023/07/15 09:41:43;;;;;;;3.30;1.60;;;;;;;-128.00;-1.00;-1.00;97813;285;1003440;-32
2023/07/15 09:44:09;;;;;;;1.90;1.00;;;;;;;-128.00;-1.00;-1.00;97934;285;1003727;-31
2023/07/15 09:46:35;;;;;;;1.30;1.00;;;;;;;-128.00;-1.00;-1.00;97696;301;1003198;-38
2023/07/15 09:49:01;;;;;;;1.60;1.30;;;;;;;-128.00;-1.00;-1.00;97845;285;1002949;-32
2023/07/15 09:51:26;;;;;;;1.30;0.80;;;;;;;-128.00;-1.00;-1.00;97862;285;1005396;-35
2023/07/15 09:53:54;;;;;;;2.90;1.20;;;;;;;-128.00;-1.00;-1.00;97985;285;1003453;-31
2023/07/15 09:56:25;;;;;;;3.80;1.10;;;;;;;-128.00;-1.00;-1.00;97896;296;1003412;-35
2023/07/15 09:58:53;;;;;;;2.30;1.10;;;;;;;-128.00;-1.00;-1.00;97785;285;1003247;-35
2023/07/15 10:01:36;;;;;;;1.10;0.70;;;;;;;-128.00;-1.00;-1.00;97892;285;1003466;-32
2023/07/15 10:04:09;;;;;;;5.00;0.70;;;;;;;-128.00;-1.00;-1.00;97786;296;1003268;-33
2023/07/15 10:06:35;;;;;;;2.00;0.90;;;;;;;-128.00;-1.00;-1.00;97922;285;1002874;-33
2023/07/15 10:09:01;;;;;;;3.50;1.10;;;;;;;-128.00;-1.00;-1.00;97903;285;1003603;-35
2023/07/15 10:11:26;;;;;;;0.90;0.70;;;;;;;-128.00;-1.00;-1.00;97924;285;1003950;-35
2023/07/15 10:13:52;;;;;;;1.30;1.00;;;;;;;-128.00;-1.00;-1.00;97849;285;1003094;-32
2023/07/15 10:16:18;;;;;;;1.90;0.80;;;;;;;-128.00;-1.00;-1.00;97887;285;1003620;-35
2023/07/15 10:18:46;;;;;;;0.80;0.70;;;;;;;-128.00;-1.00;-1.00;98027;300;1004345;-35
2023/07/15 10:21:12;;;;;;;1.40;0.60;;;;;;;-128.00;-1.00;-1.00;97970;296;1003269;-34
2023/07/15 10:23:38;;;;;;;1.00;0.80;;;;;;;-128.00;-1.00;-1.00;97760;285;1003442;-35
2023/07/15 10:26:05;;;;;;;2.40;0.90;;;;;;;-128.00;-1.00;-1.00;97503;288;1004611;-32
2023/07/15 10:28:35;;;;;;;1.30;0.80;;;;;;;-128.00;-1.00;-1.00;97706;285;1004247;-35
2023/07/15 10:31:14;;;;;;;1.30;1.00;;;;;;;-128.00;-1.00;-1.00;97648;285;1005280;-35
2023/07/15 10:33:57;;;;;;;2.10;1.40;;;;;;;-128.00;-1.00;-1.00;97569;296;1005312;-35
2023/07/15 10:36:36;;;;;;;1.60;0.80;;;;;;;-128.00;-1.00;-1.00;97779;285;1005220;-36
2023/07/15 10:39:18;;;;;;;1.70;0.70;;;;;;;-128.00;-1.00;-1.00;97661;285;1005451;-35
2023/07/15 10:41:45;;;;;;;0.90;0.80;;;;;;;-128.00;-1.00;-1.00;97771;285;1006084;-31
2023/07/15 10:44:16;;;;;;;5.50;1.10;;;;;;;-128.00;-1.00;-1.00;97737;285;1004655;-37
2023/07/15 10:46:44;;;;;;;0.90;0.60;;;;;;;-128.00;-1.00;-1.00;97690;285;1004797;-35
2023/07/15 10:49:10;;;;;;;1.90;0.90;;;;;;;-128.00;-1.00;-1.00;97666;285;1006287;-36
2023/07/15 10:51:35;;;;;;;0.50;0.40;;;;;;;-128.00;-1.00;-1.00;97840;296;1005045;-37
2023/07/15 10:54:01;;;;;;;0.80;0.70;;;;;;;-128.00;-1.00;-1.00;97044;296;1004398;-36
2023/07/15 10:56:27;;;;;;;1.40;0.80;;;;;;;-128.00;-1.00;-1.00;97876;296;1003526;-32
2023/07/15 10:58:53;;;;;;;0.70;0.70;;;;;;;-128.00;-1.00;-1.00;97725;285;1003773;-33
2023/07/15 11:01:18;;;;;;;3.00;0.50;;;;;;;-128.00;-1.00;-1.00;97672;296;1004751;-32
2023/07/15 11:03:44;;;;;;;0.80;0.60;;;;;;;-128.00;-1.00;-1.00;97853;285;1003275;-30
2023/07/15 11:06:10;;;;;;;0.90;0.70;;;;;;;-128.00;-1.00;-1.00;97106;296;2002829;-36
2023/07/15 11:08:37;;;;;;;0.80;0.60;;;;;;;-128.00;-1.00;-1.00;98006;296;1003382;-37
2023/07/15 11:11:04;;;;;;;0.80;0.60;;;;;;;-128.00;-1.00;-1.00;97960;296;1003924;-36
2023/07/15 11:13:30;;;;;;;1.80;0.70;;;;;;;-128.00;-1.00;-1.00;97843;285;1004272;-35
2023/07/15 11:15:56;;;;;;;1.70;0.70;;;;;;;-128.00;-1.00;-1.00;97091;296;1002990;-35
2023/07/15 11:18:23;;;;;;;2.60;0.90;;;;;;;-128.00;-1.00;-1.00;97722;296;1005668;-31
2023/07/15 11:20:51;;;;;;;0.80;0.70;;;;;;;-128.00;-1.00;-1.00;97231;296;1003937;-33
2023/07/15 11:23:16;;;;;;;6.40;1.20;;;;;;;-128.00;-1.00;-1.00;97915;285;1002900;-38
2023/07/15 11:25:42;;;;;;;1.90;0.80;;;;;;;-128.00;-1.00;-1.00;97748;285;1002951;-36
2023/07/15 11:28:09;;;;;;;7.40;1.10;;;;;;;-128.00;-1.00;-1.00;97741;285;1004710;-35
2023/07/15 11:30:39;;;;;;;1.70;0.80;;;;;;;-128.00;-1.00;-1.00;97688;285;1004353;-35
2023/07/15 11:33:05;;;;;;;1.80;1.00;;;;;;;-128.00;-1.00;-1.00;97869;285;1005669;-35
2023/07/15 11:35:32;;;;;;;1.10;0.80;;;;;;;-128.00;-1.00;-1.00;98017;285;1003523;-32
2023/07/15 11:37:58;;;;;;;1.20;0.90;;;;;;;-128.00;-1.00;-1.00;97897;296;1002622;-32
2023/07/15 11:40:23;;;;;;;0.80;0.70;;;;;;;-128.00;-1.00;-1.00;97954;296;1003300;-36
2023/07/15 11:42:49;;;;;;;1.80;1.00;;;;;;;-128.00;-1.00;-1.00;98039;285;1002755;-32
2023/07/15 11:45:15;;;;;;;1.20;1.00;;;;;;;-128.00;-1.00;-1.00;97790;296;1002756;-30
2023/07/15 11:47:43;;;;;;;4.00;1.20;;;;;;;-128.00;-1.00;-1.00;97891;296;1003640;-38
2023/07/15 11:50:13;;;;;;;1.60;0.70;;;;;;;-128.00;-1.00;-1.00;97889;285;1003004;-31
2023/07/15 11:52:41;;;;;;;2.20;1.00;;;;;;;-128.00;-1.00;-1.00;97816;298;1003046;-35
2023/07/15 11:55:07;;;;;;;1.40;1.00;;;;;;;-128.00;-1.00;-1.00;98073;285;1002508;-35
2023/07/15 11:57:40;;;;;;;0.90;0.70;;;;;;;-128.00;-1.00;-1.00;97890;285;1004567;-36
2023/07/15 12:00:09;;;;;;;1.40;0.60;;;;;;;-128.00;-1.00;-1.00;97812;288;1002414;-36
2023/07/15 12:02:35;;;;;;;0.80;0.50;;;;;;;-128.00;-1.00;-1.00;97834;296;1002514;-32
2023/07/15 12:05:01;;;;;;;0.90;0.70;;;;;;;-128.00;-1.00;-1.00;97925;285;1004530;-33
2023/07/15 12:07:27;;;;;;;8.50;0.40;;;;;;;-128.00;-1.00;-1.00;97815;296;1003698;-32
2023/07/15 12:10:05;;;;;;;11.70;1.00;;;;;;;-128.00;-1.00;-1.00;97910;285;1002476;-31